This is the latest recevied weather packets stored in our database for station/object SR2WXM. If no packets are shown the sender has not sent any weather packets the latest 10 day(s).
| Time | Temp. | Humidity | Pressure | Rain* | Wind** | Luminosity | Snow |
|---|---|---|---|---|---|---|---|
| 1777614302 | 11.67° C | 58% | 1025.4 hPa | 0 mm | - | - | - |
| 1777613402 | 10° C | 60% | 1025 hPa | 0 mm | - | - | - |
| 1777612502 | 8.89° C | 65% | 1025 hPa | 0 mm | - | - | - |
| 1777611603 | 6.67° C | 74% | 1025.4 hPa | 0 mm | - | - | - |
| 1777610702 | 6.67° C | 75% | 1025.4 hPa | 0 mm | - | - | - |
| 1777609803 | 5.56° C | 74% | 1025 hPa | 0 mm | - | - | - |
| 1777608902 | 5° C | 76% | 1025 hPa | 0 mm | - | - | - |
| 1777608002 | 3.89° C | 77% | 1025 hPa | 0 mm | - | - | - |
| 1777607102 | 3.89° C | 79% | 1025 hPa | 0 mm | - | - | - |
| 1777606201 | 3.89° C | 79% | 1025 hPa | 0 mm | - | - | - |
| 1777605301 | 2.78° C | 81% | 1025 hPa | 0 mm | - | - | - |
| 1777604402 | 1.67° C | 85% | 1025 hPa | 0 mm | - | - | - |
| 1777603501 | 2.78° C | 81% | 1025 hPa | 0 mm | - | - | - |
| 1777602602 | 2.78° C | 82% | 1025 hPa | 0 mm | - | - | - |
| 1777601702 | 2.78° C | 81% | 1025 hPa | 0 mm | - | - | - |
| 1777600802 | 2.78° C | 83% | 1025 hPa | 0 mm | - | - | - |
| 1777599902 | 2.78° C | 83% | 1025 hPa | 0 mm | - | - | - |
| 1777599001 | 2.78° C | 78% | 1025 hPa | 0 mm | - | - | - |
| 1777598104 | 3.89° C | 73% | 1025 hPa | 0 mm | - | - | - |
| 1777597202 | 5° C | 70% | 1025 hPa | 0 mm | - | - | - |
| 1777596302 | 5° C | 68% | 1025 hPa | 0 mm | - | - | - |
| 1777595402 | 5° C | 68% | 1025 hPa | 0 mm | - | - | - |
| 1777594502 | 5.56° C | 67% | 1025 hPa | 0 mm | - | - | - |
| 1777593602 | 5° C | 69% | 1025.4 hPa | 0 mm | - | - | - |
| 1777592703 | 5.56° C | 66% | 1025.4 hPa | 0 mm | - | - | - |
* Rain latest hour (hover to see other rain measurements)
** Current wind speed in m/s (hover to see current wind gust speed)